Terminal Aerodrome Forecast
Issued by NWS Rapid City, SD

Home | Current Version | Previous Version | Text Only | Print | Product List | Glossary On
Versions: 1 2 3 4 5 6 7 8 9 10 11 12 13 14
081
FTUS43 KUNR 231122
TAFRAP
TAF
KRAP 231122Z 2312/2412 32026G36KT P6SM SKC
     FM231500 33035G46KT P6SM SCT200
     FM240000 33020G30KT P6SM SKC=

USA.gov is the U.S. government's official web portal to all federal, state and local government web resources and services.